createdAt,value
2017-03-23T00:00:53.492Z,1008.61
2017-03-23T00:01:48.503Z,1008.65
2017-03-23T00:02:48.554Z,1008.70
2017-03-23T00:03:43.522Z,1008.66
2017-03-23T00:04:38.581Z,1008.68
2017-03-23T00:05:38.617Z,1008.70
2017-03-23T00:06:33.651Z,1008.71
2017-03-23T00:07:28.696Z,1008.74
2017-03-23T00:08:28.695Z,1008.76
2017-03-23T00:09:23.701Z,1008.76
2017-03-23T00:10:18.751Z,1008.78
2017-03-23T00:11:12.796Z,1008.79
2017-03-23T00:12:07.005Z,1008.83
2017-03-23T00:13:07.836Z,1008.86
2017-03-23T00:14:02.867Z,1008.91
2017-03-23T00:14:57.907Z,1008.92
2017-03-23T00:15:57.888Z,1008.93
2017-03-23T00:16:52.945Z,1008.95
2017-03-23T00:17:47.992Z,1008.94
2017-03-23T00:18:48.984Z,1008.93
2017-03-23T00:19:43.034Z,1008.93
2017-03-23T00:20:37.049Z,1008.94
2017-03-23T00:21:32.155Z,1008.91
2017-03-23T00:22:20.126Z,1008.92
2017-03-23T00:23:20.195Z,1008.92
2017-03-23T00:24:14.234Z,1008.96
2017-03-23T00:25:15.240Z,1008.93
2017-03-23T00:26:15.211Z,1008.95
2017-03-23T00:27:15.262Z,1008.96
2017-03-23T00:28:09.354Z,1008.96
2017-03-23T00:29:09.372Z,1009.01
2017-03-23T00:29:57.342Z,1009.00
2017-03-23T00:30:45.448Z,1008.97
2017-03-23T00:31:40.510Z,1009.00
2017-03-23T00:32:34.397Z,1008.98
2017-03-23T00:33:34.493Z,1008.99
2017-03-23T00:34:34.544Z,1008.98
2017-03-23T00:35:22.594Z,1008.99
2017-03-23T00:36:11.530Z,1008.97
2017-03-23T00:37:11.576Z,1009.00
2017-03-23T00:38:05.637Z,1009.00
2017-03-23T00:39:05.755Z,1008.97
2017-03-23T00:40:00.769Z,1008.99
2017-03-23T00:40:55.750Z,1009.00
2017-03-23T00:41:44.769Z,1009.01
2017-03-23T00:42:44.802Z,1009.02
2017-03-23T00:43:44.826Z,1009.00
2017-03-23T00:44:44.837Z,1008.99
2017-03-23T00:45:39.007Z,1009.01
2017-03-23T00:46:38.953Z,1009.00
2017-03-23T00:47:38.961Z,1008.97
2017-03-23T00:48:27.943Z,1008.97
2017-03-23T00:49:23.010Z,1008.97
2017-03-23T00:50:18.061Z,1009.01
2017-03-23T00:51:18.071Z,1008.98
2017-03-23T00:52:13.077Z,1008.96
2017-03-23T00:53:08.117Z,1008.98
2017-03-23T00:54:08.203Z,1008.97
2017-03-23T00:55:03.149Z,1008.99
2017-03-23T00:55:57.190Z,1008.98
2017-03-23T00:56:57.259Z,1008.94
2017-03-23T00:57:57.280Z,1008.94
2017-03-23T00:58:52.307Z,1008.92
2017-03-23T00:59:46.345Z,1008.96
2017-03-23T01:00:46.343Z,1008.93
2017-03-23T01:01:46.368Z,1008.94
2017-03-23T01:02:41.419Z,1008.95
2017-03-23T01:03:36.460Z,1008.94
2017-03-23T01:04:36.473Z,1008.97
2017-03-23T01:05:30.523Z,1008.98
2017-03-23T01:06:31.563Z,1008.98
2017-03-23T01:07:25.544Z,1008.97
2017-03-23T01:08:19.623Z,1008.96
2017-03-23T01:09:14.090Z,1009.01
2017-03-23T01:10:19.614Z,1008.97
2017-03-23T01:11:14.599Z,1008.99
2017-03-23T01:12:08.674Z,1008.97
2017-03-23T01:13:08.698Z,1008.96
2017-03-23T01:14:08.805Z,1008.99
2017-03-23T01:15:03.815Z,1009.04
2017-03-23T01:15:57.839Z,1009.03
2017-03-23T01:16:57.828Z,1009.01
2017-03-23T01:17:52.876Z,1009.01
2017-03-23T01:18:46.978Z,1008.99
2017-03-23T01:19:47.025Z,1008.98
2017-03-23T01:20:34.984Z,1008.96
2017-03-23T01:21:28.950Z,1008.95
2017-03-23T01:22:23.022Z,1008.98
2017-03-23T01:23:23.079Z,1008.95
2017-03-23T01:24:23.083Z,1008.95
2017-03-23T01:25:18.172Z,1008.98
2017-03-23T01:26:07.156Z,1008.97
2017-03-23T01:27:02.175Z,1008.99
2017-03-23T01:28:02.198Z,1008.99
2017-03-23T01:28:56.284Z,1008.98
2017-03-23T01:29:57.241Z,1009.00
2017-03-23T01:30:52.286Z,1009.01
2017-03-23T01:31:47.317Z,1008.97
2017-03-23T01:32:42.374Z,1008.97
2017-03-23T01:33:42.366Z,1008.99
2017-03-23T01:34:36.460Z,1008.99
2017-03-23T01:35:42.432Z,1008.97
2017-03-23T01:36:42.950Z,1008.97
2017-03-23T01:37:37.505Z,1008.98
2017-03-23T01:38:31.478Z,1008.97
2017-03-23T01:39:19.518Z,1008.95
2017-03-23T01:40:08.618Z,1008.97
2017-03-23T01:41:03.663Z,1008.96
2017-03-23T01:42:03.671Z,1008.90
2017-03-23T01:43:03.773Z,1008.89
2017-03-23T01:43:57.738Z,1008.89
2017-03-23T01:44:57.699Z,1008.92
2017-03-23T01:45:57.753Z,1008.87
2017-03-23T01:46:51.822Z,1008.85
2017-03-23T01:47:46.927Z,1008.85
2017-03-23T01:48:47.823Z,1008.81
2017-03-23T01:49:42.887Z,1008.80
2017-03-23T01:50:36.929Z,1008.81
2017-03-23T01:51:30.923Z,1008.76
2017-03-23T01:52:25.918Z,1008.75
2017-03-23T01:53:20.003Z,1008.75
2017-03-23T01:54:20.521Z,1008.72
2017-03-23T01:55:15.094Z,1008.68
2017-03-23T01:56:10.087Z,1008.63
2017-03-23T01:57:10.155Z,1008.66
2017-03-23T01:58:04.110Z,1008.64
2017-03-23T01:59:05.417Z,1008.63
2017-03-23T01:59:59.246Z,1008.64
2017-03-23T02:00:59.642Z,1008.62
2017-03-23T02:01:54.306Z,1008.67
2017-03-23T02:02:48.277Z,1008.65
2017-03-23T02:03:48.350Z,1008.61
2017-03-23T02:04:48.438Z,1008.65
2017-03-23T02:05:43.391Z,1008.67
2017-03-23T02:06:38.425Z,1008.67
2017-03-23T02:07:38.430Z,1008.66
2017-03-23T02:08:33.486Z,1008.64
2017-03-23T02:09:28.527Z,1008.62
2017-03-23T02:10:29.506Z,1008.64
2017-03-23T02:11:29.554Z,1008.63
2017-03-23T02:12:29.613Z,1008.65
2017-03-23T02:13:23.561Z,1008.66
2017-03-23T02:14:18.694Z,1008.64
2017-03-23T02:15:18.668Z,1008.64
2017-03-23T02:16:13.734Z,1008.68
2017-03-23T02:17:08.745Z,1008.60
2017-03-23T02:18:08.827Z,1008.68
2017-03-23T02:18:57.870Z,1008.66
2017-03-23T02:19:51.828Z,1008.69
2017-03-23T02:20:51.892Z,1008.67
2017-03-23T02:21:45.897Z,1008.66
2017-03-23T02:22:45.905Z,1008.68
2017-03-23T02:23:45.971Z,1008.66
2017-03-23T02:24:34.006Z,1008.64
2017-03-23T02:25:29.032Z,1008.65
2017-03-23T02:26:35.040Z,1008.65
2017-03-23T02:27:35.136Z,1008.63
2017-03-23T02:28:29.080Z,1008.63
2017-03-23T02:29:29.135Z,1008.60
2017-03-23T02:30:23.603Z,1008.61
2017-03-23T02:31:23.181Z,1008.62
2017-03-23T02:32:18.214Z,1008.62
2017-03-23T02:33:18.232Z,1008.59
2017-03-23T02:34:13.317Z,1008.62
2017-03-23T02:35:08.356Z,1008.61
2017-03-23T02:35:57.337Z,1008.65
2017-03-23T02:36:57.390Z,1008.61
2017-03-23T02:37:51.407Z,1008.60
2017-03-23T02:38:51.434Z,1008.58
2017-03-23T02:39:46.485Z,1008.54
2017-03-23T02:40:46.502Z,1008.53
2017-03-23T02:41:35.524Z,1008.49
2017-03-23T02:42:29.513Z,1008.47
2017-03-23T02:43:29.579Z,1008.47
2017-03-23T02:44:23.998Z,1008.45
2017-03-23T02:45:24.112Z,1008.41
2017-03-23T02:46:23.649Z,1008.41
2017-03-23T02:47:18.728Z,1008.43
2017-03-23T02:48:12.739Z,1008.45
2017-03-23T02:49:12.787Z,1008.46
2017-03-23T02:50:06.849Z,1008.47
2017-03-23T02:51:06.838Z,1008.44
2017-03-23T02:52:01.899Z,1008.45
2017-03-23T02:53:01.888Z,1008.46
2017-03-23T02:53:57.081Z,1008.44
2017-03-23T02:54:50.941Z,1008.45
2017-03-23T02:55:51.018Z,1008.50
2017-03-23T02:56:50.990Z,1008.48
2017-03-23T02:57:46.032Z,1008.47
2017-03-23T02:58:41.067Z,1008.50
2017-03-23T02:59:42.087Z,1008.51
2017-03-23T03:00:30.108Z,1008.50
2017-03-23T03:01:18.299Z,1008.49
2017-03-23T03:02:19.213Z,1008.48
2017-03-23T03:03:13.213Z,1008.51
2017-03-23T03:04:07.260Z,1008.51
2017-03-23T03:05:02.323Z,1008.50
2017-03-23T03:05:56.343Z,1008.55
2017-03-23T03:06:56.363Z,1008.57
2017-03-23T03:07:51.433Z,1008.58
2017-03-23T03:08:46.437Z,1008.58
2017-03-23T03:09:46.465Z,1008.57
2017-03-23T03:10:40.515Z,1008.56
2017-03-23T03:11:40.577Z,1008.56
2017-03-23T03:12:34.566Z,1008.57
2017-03-23T03:13:29.834Z,1008.58
2017-03-23T03:14:23.593Z,1008.58
2017-03-23T03:15:18.662Z,1008.55
2017-03-23T03:16:18.627Z,1008.56
2017-03-23T03:17:18.723Z,1008.58
2017-03-23T03:18:18.754Z,1008.58
2017-03-23T03:19:19.730Z,1008.51
2017-03-23T03:20:20.756Z,1008.50
2017-03-23T03:21:14.880Z,1008.46
2017-03-23T03:22:14.825Z,1008.47
2017-03-23T03:23:09.835Z,1008.45
2017-03-23T03:24:04.933Z,1008.40
2017-03-23T03:24:59.040Z,1008.42
2017-03-23T03:25:53.976Z,1008.41
2017-03-23T03:26:47.995Z,1008.38
2017-03-23T03:27:48.046Z,1008.31
2017-03-23T03:28:43.076Z,1008.32
2017-03-23T03:29:38.076Z,1008.32
2017-03-23T03:30:38.114Z,1008.29
2017-03-23T03:31:33.093Z,1008.27
2017-03-23T03:32:28.219Z,1008.28
2017-03-23T03:33:28.272Z,1008.26
2017-03-23T03:34:22.272Z,1008.23
2017-03-23T03:35:23.529Z,1008.28
2017-03-23T03:36:23.276Z,1008.27
2017-03-23T03:37:23.352Z,1008.27
2017-03-23T03:38:17.328Z,1008.31
2017-03-23T03:39:17.323Z,1008.29
2017-03-23T03:40:12.462Z,1008.35
2017-03-23T03:41:07.721Z,1008.37
2017-03-23T03:42:08.441Z,1008.37
2017-03-23T03:43:08.496Z,1008.35
2017-03-23T03:44:08.486Z,1008.39
2017-03-23T03:45:03.564Z,1008.38
2017-03-23T03:45:57.569Z,1008.38
2017-03-23T03:46:51.885Z,1008.38
2017-03-23T03:47:46.619Z,1008.41
2017-03-23T03:48:46.668Z,1008.36
2017-03-23T03:49:41.651Z,1008.43
2017-03-23T03:50:36.713Z,1008.45
2017-03-23T03:51:36.751Z,1008.48
2017-03-23T03:52:32.328Z,1008.48
2017-03-23T03:53:26.830Z,1008.49
2017-03-23T03:54:26.844Z,1008.50
2017-03-23T03:55:15.809Z,1008.51
2017-03-23T03:56:03.952Z,1008.50
2017-03-23T03:57:03.966Z,1008.51
2017-03-23T03:57:59.249Z,1008.51
2017-03-23T03:58:54.019Z,1008.54
2017-03-23T03:59:54.036Z,1008.55
2017-03-23T04:00:48.441Z,1008.55
2017-03-23T04:01:48.049Z,1008.57
2017-03-23T04:02:48.160Z,1008.57
2017-03-23T04:03:42.454Z,1008.57
2017-03-23T04:04:48.142Z,1008.59
2017-03-23T04:05:42.211Z,1008.60
2017-03-23T04:06:42.230Z,1008.61
2017-03-23T04:07:37.236Z,1008.62
2017-03-23T04:08:37.528Z,1008.62
2017-03-23T04:09:32.994Z,1008.63
2017-03-23T04:10:21.321Z,1008.62
2017-03-23T04:11:10.390Z,1008.66
2017-03-23T04:12:10.406Z,1008.65
2017-03-23T04:13:10.451Z,1008.65
2017-03-23T04:14:04.523Z,1008.67
2017-03-23T04:15:04.540Z,1008.69
2017-03-23T04:15:58.524Z,1008.70
2017-03-23T04:16:52.543Z,1008.72
2017-03-23T04:17:52.580Z,1008.74
2017-03-23T04:18:53.654Z,1008.76
2017-03-23T04:19:42.653Z,1008.78
2017-03-23T04:20:37.015Z,1008.79
2017-03-23T04:21:36.755Z,1008.82
2017-03-23T04:22:30.767Z,1008.82
2017-03-23T04:23:18.730Z,1008.86
2017-03-23T04:24:07.836Z,1008.84
2017-03-23T04:25:02.855Z,1008.87
2017-03-23T04:25:51.938Z,1008.86
2017-03-23T04:26:51.893Z,1008.89
2017-03-23T04:27:40.927Z,1008.87
2017-03-23T04:28:29.022Z,1008.89
2017-03-23T04:29:23.030Z,1008.91
2017-03-23T04:30:17.090Z,1008.89
2017-03-23T04:31:11.388Z,1008.93
2017-03-23T04:32:06.156Z,1008.94
2017-03-23T04:33:00.144Z,1008.92
2017-03-23T04:34:06.179Z,1008.95
2017-03-23T04:35:06.210Z,1009.01
2017-03-23T04:36:06.282Z,1008.99
2017-03-23T04:37:06.586Z,1009.01
2017-03-23T04:38:00.309Z,1009.03
2017-03-23T04:39:00.309Z,1009.03
2017-03-23T04:39:55.347Z,1009.03
2017-03-23T04:40:50.394Z,1009.05
2017-03-23T04:41:50.462Z,1009.03
2017-03-23T04:42:45.670Z,1009.06
2017-03-23T04:43:40.882Z,1009.05
2017-03-23T04:44:41.482Z,1009.04
2017-03-23T04:45:36.529Z,1009.06
2017-03-23T04:46:30.574Z,1009.06
2017-03-23T04:47:30.584Z,1009.05
2017-03-23T04:48:25.622Z,1009.06
2017-03-23T04:49:20.634Z,1009.04
2017-03-23T04:50:20.641Z,1009.06
2017-03-23T04:51:15.723Z,1009.06
2017-03-23T04:52:10.742Z,1009.08
2017-03-23T04:52:59.774Z,1009.05
2017-03-23T04:53:54.123Z,1009.05
2017-03-23T04:54:42.984Z,1009.10
2017-03-23T04:55:42.855Z,1009.05
2017-03-23T04:56:31.912Z,1009.06
2017-03-23T04:57:25.914Z,1009.10
2017-03-23T04:58:25.912Z,1009.06
2017-03-23T04:59:21.050Z,1009.06
2017-03-23T05:00:21.031Z,1009.08
2017-03-23T05:01:15.094Z,1009.10
2017-03-23T05:02:10.124Z,1009.08
2017-03-23T05:03:11.153Z,1009.07
2017-03-23T05:04:11.130Z,1009.06
2017-03-23T05:05:06.215Z,1009.06
2017-03-23T05:06:06.238Z,1009.05
2017-03-23T05:07:01.211Z,1009.04
2017-03-23T05:07:55.230Z,1009.05
2017-03-23T05:08:55.308Z,1009.00
2017-03-23T05:09:49.366Z,1008.97
2017-03-23T05:10:49.418Z,1008.97
2017-03-23T05:11:43.443Z,1008.97
2017-03-23T05:12:44.445Z,1008.95
2017-03-23T05:13:33.913Z,1008.95
2017-03-23T05:14:28.459Z,1008.96
2017-03-23T05:15:28.535Z,1008.93
2017-03-23T05:16:23.696Z,1008.92
2017-03-23T05:17:17.609Z,1008.97
2017-03-23T05:18:12.624Z,1008.94
2017-03-23T05:19:12.700Z,1008.94
2017-03-23T05:20:06.708Z,1008.95
2017-03-23T05:21:07.699Z,1008.96
2017-03-23T05:22:08.790Z,1008.99
2017-03-23T05:23:08.850Z,1008.99
2017-03-23T05:24:08.921Z,1009.02
2017-03-23T05:24:57.854Z,1009.01
2017-03-23T05:25:52.894Z,1009.03
2017-03-23T05:26:46.987Z,1009.03
2017-03-23T05:27:46.953Z,1009.04
2017-03-23T05:28:41.973Z,1009.08
2017-03-23T05:29:36.006Z,1009.16
2017-03-23T05:30:36.033Z,1009.17
2017-03-23T05:31:30.048Z,1009.16
2017-03-23T05:32:30.559Z,1009.18
2017-03-23T05:33:25.275Z,1009.20
2017-03-23T05:34:19.154Z,1009.23
2017-03-23T05:35:19.181Z,1009.29
2017-03-23T05:36:13.242Z,1009.22
2017-03-23T05:37:13.243Z,1009.27
2017-03-23T05:38:08.297Z,1009.26
2017-03-23T05:39:03.302Z,1009.31
2017-03-23T05:39:51.344Z,1009.30
2017-03-23T05:40:52.392Z,1009.35
2017-03-23T05:41:52.412Z,1009.33
2017-03-23T05:42:52.421Z,1009.38
2017-03-23T05:43:52.436Z,1009.38
2017-03-23T05:44:59.505Z,1009.38
2017-03-23T05:46:00.537Z,1009.40
2017-03-23T05:46:54.522Z,1009.41
2017-03-23T05:47:43.564Z,1009.42
2017-03-23T05:48:38.586Z,1009.45
2017-03-23T05:49:32.685Z,1009.44
2017-03-23T05:50:32.682Z,1009.42
2017-03-23T05:51:33.152Z,1009.43
2017-03-23T05:52:26.737Z,1009.37
2017-03-23T05:53:20.820Z,1009.42
2017-03-23T05:54:14.834Z,1009.37
2017-03-23T05:55:10.480Z,1009.40
2017-03-23T05:56:05.050Z,1009.36
2017-03-23T05:57:05.896Z,1009.35
2017-03-23T05:58:05.941Z,1009.37
2017-03-23T05:59:00.963Z,1009.32
2017-03-23T05:59:55.038Z,1009.34
2017-03-23T06:00:55.018Z,1009.35
2017-03-23T06:01:44.037Z,1009.37
2017-03-23T06:02:39.171Z,1009.35
2017-03-23T06:03:39.315Z,1009.38
2017-03-23T06:04:34.229Z,1009.41
2017-03-23T06:05:29.224Z,1009.40
2017-03-23T06:06:18.274Z,1009.38
2017-03-23T06:07:18.299Z,1009.38
2017-03-23T06:08:18.288Z,1009.43
2017-03-23T06:09:18.371Z,1009.46
2017-03-23T06:10:12.417Z,1009.47
2017-03-23T06:11:07.360Z,1009.48
2017-03-23T06:12:08.430Z,1009.52
2017-03-23T06:13:09.411Z,1009.56
2017-03-23T06:14:09.910Z,1009.55
2017-03-23T06:15:04.535Z,1009.58
2017-03-23T06:16:04.539Z,1009.61
2017-03-23T06:16:58.566Z,1009.61
2017-03-23T06:17:53.608Z,1009.64
2017-03-23T06:18:53.680Z,1009.63
2017-03-23T06:19:47.665Z,1009.67
2017-03-23T06:20:48.725Z,1009.67
2017-03-23T06:21:48.666Z,1009.68
2017-03-23T06:22:43.716Z,1009.70
2017-03-23T06:23:32.821Z,1009.66
2017-03-23T06:24:32.856Z,1009.71
2017-03-23T06:25:32.886Z,1009.71
2017-03-23T06:26:32.945Z,1009.73
2017-03-23T06:27:27.934Z,1009.79
2017-03-23T06:28:17.155Z,1009.78
2017-03-23T06:29:11.973Z,1009.81
2017-03-23T06:30:12.143Z,1009.78
2017-03-23T06:31:07.035Z,1009.77
2017-03-23T06:32:02.114Z,1009.76
2017-03-23T06:32:51.080Z,1009.77
2017-03-23T06:33:46.142Z,1009.81
2017-03-23T06:34:40.408Z,1009.81
2017-03-23T06:35:40.393Z,1009.81
2017-03-23T06:36:40.244Z,1009.86
2017-03-23T06:37:41.653Z,1009.90
2017-03-23T06:38:36.315Z,1009.83
2017-03-23T06:39:25.393Z,1009.84
2017-03-23T06:40:20.428Z,1009.79
2017-03-23T06:41:14.462Z,1009.80
2017-03-23T06:42:09.511Z,1009.81
2017-03-23T06:43:04.631Z,1009.80
2017-03-23T06:43:58.555Z,1009.83
2017-03-23T06:44:59.546Z,1009.86
2017-03-23T06:45:48.825Z,1009.90
2017-03-23T06:46:48.612Z,1009.94
2017-03-23T06:47:49.194Z,1009.91
2017-03-23T06:48:48.654Z,1009.93
2017-03-23T06:49:48.791Z,1009.90
2017-03-23T06:50:48.789Z,1009.92
2017-03-23T06:51:42.866Z,1009.91
2017-03-23T06:52:44.010Z,1009.91
2017-03-23T06:53:37.882Z,1009.95
2017-03-23T06:54:37.963Z,1009.94
2017-03-23T06:55:32.952Z,1009.96
2017-03-23T06:56:26.956Z,1009.98
2017-03-23T06:57:21.372Z,1009.97
2017-03-23T06:58:16.315Z,1009.93
2017-03-23T06:59:11.134Z,1009.95
2017-03-23T07:00:05.224Z,1010.01
2017-03-23T07:01:05.191Z,1010.05
2017-03-23T07:02:00.265Z,1010.09
2017-03-23T07:02:55.435Z,1010.12
2017-03-23T07:03:55.451Z,1010.12
2017-03-23T07:04:50.258Z,1010.14
2017-03-23T07:05:45.330Z,1010.20
2017-03-23T07:06:39.346Z,1010.21
2017-03-23T07:07:39.398Z,1010.16
2017-03-23T07:08:34.435Z,1010.09
2017-03-23T07:09:34.575Z,1010.09
2017-03-23T07:10:34.501Z,1010.13
2017-03-23T07:11:34.537Z,1010.12
2017-03-23T07:12:28.569Z,1010.07
2017-03-23T07:13:22.579Z,1010.03
2017-03-23T07:14:17.746Z,1010.02
2017-03-23T07:15:17.740Z,1010.06
2017-03-23T07:16:12.688Z,1010.12
2017-03-23T07:17:12.845Z,1010.06
2017-03-23T07:18:07.752Z,1010.09
2017-03-23T07:19:02.792Z,1010.11
2017-03-23T07:19:57.382Z,1010.18
2017-03-23T07:20:56.841Z,1010.16
2017-03-23T07:21:56.904Z,1010.24
2017-03-23T07:22:57.351Z,1010.23
2017-03-23T07:23:56.938Z,1010.20
2017-03-23T07:24:56.992Z,1010.18
2017-03-23T07:25:57.118Z,1010.11
2017-03-23T07:26:52.577Z,1010.14
2017-03-23T07:27:46.129Z,1010.14
2017-03-23T07:28:40.232Z,1010.23
2017-03-23T07:29:40.241Z,1010.20
2017-03-23T07:30:40.255Z,1010.22
2017-03-23T07:31:35.335Z,1010.22
2017-03-23T07:32:35.281Z,1010.11
2017-03-23T07:33:30.319Z,1010.18
2017-03-23T07:34:30.425Z,1010.14
2017-03-23T07:35:24.854Z,1010.11
2017-03-23T07:36:24.944Z,1010.15
2017-03-23T07:37:19.538Z,1010.09
2017-03-23T07:38:13.542Z,1010.15
2017-03-23T07:39:08.597Z,1010.15
2017-03-23T07:40:09.607Z,1010.17
2017-03-23T07:41:09.647Z,1010.19
2017-03-23T07:42:09.720Z,1010.23
2017-03-23T07:43:03.740Z,1010.25
2017-03-23T07:43:57.761Z,1010.16
2017-03-23T07:44:57.972Z,1010.18
2017-03-23T07:45:51.830Z,1010.18
2017-03-23T07:46:51.920Z,1010.24
2017-03-23T07:47:46.936Z,1010.24
2017-03-23T07:48:47.008Z,1010.27
2017-03-23T07:49:42.042Z,1010.24
2017-03-23T07:50:37.052Z,1010.23
2017-03-23T07:51:31.105Z,1010.22
2017-03-23T07:52:25.622Z,1010.22
2017-03-23T07:53:20.162Z,1010.20
2017-03-23T07:54:14.228Z,1010.19
2017-03-23T07:55:15.254Z,1010.18
2017-03-23T07:56:10.330Z,1010.22
2017-03-23T07:57:04.775Z,1010.21
2017-03-23T07:57:59.616Z,1010.27
2017-03-23T07:58:48.409Z,1010.22
2017-03-23T07:59:48.519Z,1010.26
2017-03-23T08:00:42.510Z,1010.31
2017-03-23T08:01:43.555Z,1010.23
2017-03-23T08:02:44.613Z,1010.25
2017-03-23T08:03:39.618Z,1010.22
2017-03-23T08:04:33.743Z,1010.23
2017-03-23T08:05:39.749Z,1010.31
2017-03-23T08:06:35.244Z,1010.28
2017-03-23T08:07:30.257Z,1010.29
2017-03-23T08:08:23.830Z,1010.29
2017-03-23T08:09:23.875Z,1010.26
2017-03-23T08:10:18.939Z,1010.25
2017-03-23T08:11:07.455Z,1010.30
2017-03-23T08:12:07.697Z,1010.26
2017-03-23T08:13:07.036Z,1010.29
2017-03-23T08:14:07.266Z,1010.29
2017-03-23T08:15:02.574Z,1010.27
2017-03-23T08:16:02.647Z,1010.33
2017-03-23T08:16:56.259Z,1010.41
2017-03-23T08:17:56.256Z,1010.28
2017-03-23T08:18:51.405Z,1010.37
2017-03-23T08:19:39.393Z,1010.45
2017-03-23T08:20:33.395Z,1010.42
2017-03-23T08:21:33.763Z,1010.45
2017-03-23T08:22:33.851Z,1010.46
2017-03-23T08:23:28.536Z,1010.43
2017-03-23T08:24:28.550Z,1010.44
2017-03-23T08:25:28.624Z,1010.49
2017-03-23T08:26:23.624Z,1010.43
2017-03-23T08:27:18.639Z,1010.50
2017-03-23T08:28:13.766Z,1010.47
2017-03-23T08:29:13.761Z,1010.53
2017-03-23T08:30:09.231Z,1010.48
2017-03-23T08:31:04.262Z,1010.45
2017-03-23T08:31:57.881Z,1010.43
2017-03-23T08:32:51.914Z,1010.48
2017-03-23T08:33:46.942Z,1010.54
2017-03-23T08:34:36.225Z,1010.56
2017-03-23T08:35:31.059Z,1010.51
2017-03-23T08:36:31.092Z,1010.52
2017-03-23T08:37:25.158Z,1010.57
2017-03-23T08:38:25.201Z,1010.56
2017-03-23T08:39:20.239Z,1010.60
2017-03-23T08:40:09.235Z,1010.57
2017-03-23T08:41:04.693Z,1010.54
2017-03-23T08:42:04.808Z,1010.54
2017-03-23T08:42:59.413Z,1010.56
2017-03-23T08:43:54.424Z,1010.57
2017-03-23T08:44:48.679Z,1010.49
2017-03-23T08:45:43.531Z,1010.57
2017-03-23T08:46:44.039Z,1010.57
2017-03-23T08:47:38.097Z,1010.60
2017-03-23T08:48:32.677Z,1010.58
2017-03-23T08:49:32.741Z,1010.63
2017-03-23T08:50:32.754Z,1010.63
2017-03-23T08:51:27.758Z,1010.64
2017-03-23T08:52:21.879Z,1010.60
2017-03-23T08:53:16.875Z,1010.63
2017-03-23T08:54:16.939Z,1010.56
2017-03-23T08:55:11.937Z,1010.63
2017-03-23T08:56:06.009Z,1010.60
2017-03-23T08:57:06.058Z,1010.63
2017-03-23T08:58:01.063Z,1010.63
2017-03-23T08:58:56.116Z,1010.61
2017-03-23T08:59:56.178Z,1010.60
2017-03-23T09:00:51.154Z,1010.62
2017-03-23T09:01:46.254Z,1010.60
2017-03-23T09:02:40.298Z,1010.62
2017-03-23T09:03:40.370Z,1010.56
2017-03-23T09:04:35.460Z,1010.60
2017-03-23T09:05:29.466Z,1010.54
2017-03-23T09:06:29.553Z,1010.56
2017-03-23T09:07:23.538Z,1010.55
2017-03-23T09:08:17.545Z,1010.55
2017-03-23T09:09:12.886Z,1010.52
2017-03-23T09:10:06.681Z,1010.55
2017-03-23T09:11:06.760Z,1010.50
2017-03-23T09:12:01.841Z,1010.59
2017-03-23T09:12:56.840Z,1010.61
2017-03-23T09:13:56.853Z,1010.60
2017-03-23T09:14:46.423Z,1010.56
2017-03-23T09:15:34.932Z,1010.57
2017-03-23T09:16:29.047Z,1010.55
2017-03-23T09:17:23.046Z,1010.58
2017-03-23T09:18:18.151Z,1010.50
2017-03-23T09:19:13.719Z,1010.57
2017-03-23T09:20:13.700Z,1010.51
2017-03-23T09:21:08.239Z,1010.58
2017-03-23T09:22:02.330Z,1010.57
2017-03-23T09:23:02.374Z,1010.59
2017-03-23T09:24:02.426Z,1010.61
2017-03-23T09:25:02.455Z,1010.61
2017-03-23T09:26:02.511Z,1010.64
2017-03-23T09:27:02.570Z,1010.70
2017-03-23T09:28:02.558Z,1010.66
2017-03-23T09:28:57.636Z,1010.64
2017-03-23T09:29:51.627Z,1010.66
2017-03-23T09:30:47.013Z,1010.63
2017-03-23T09:31:40.772Z,1010.63
2017-03-23T09:32:40.821Z,1010.65
2017-03-23T09:33:35.859Z,1010.70
2017-03-23T09:34:29.945Z,1010.76
2017-03-23T09:35:29.965Z,1010.73
2017-03-23T09:36:24.427Z,1010.78
2017-03-23T09:37:12.019Z,1010.75
2017-03-23T09:38:06.244Z,1010.68
2017-03-23T09:39:06.136Z,1010.70
2017-03-23T09:40:01.207Z,1010.75
2017-03-23T09:40:55.503Z,1010.79
2017-03-23T09:41:55.261Z,1010.83
2017-03-23T09:42:49.627Z,1010.89
2017-03-23T09:43:49.786Z,1010.81
2017-03-23T09:44:44.428Z,1010.70
2017-03-23T09:45:40.087Z,1010.71
2017-03-23T09:46:33.541Z,1010.74
2017-03-23T09:47:33.591Z,1010.56
2017-03-23T09:48:28.598Z,1010.77
2017-03-23T09:49:24.313Z,1010.81
2017-03-23T09:50:23.674Z,1010.83
2017-03-23T09:51:19.515Z,1010.83
2017-03-23T09:52:13.825Z,1010.74
2017-03-23T09:53:02.882Z,1010.82
2017-03-23T09:54:02.951Z,1010.85
2017-03-23T09:54:57.003Z,1010.81
2017-03-23T09:55:51.374Z,1010.82
2017-03-23T09:56:51.540Z,1010.87
2017-03-23T09:57:51.576Z,1010.89
2017-03-23T09:58:51.650Z,1010.80
2017-03-23T09:59:40.258Z,1010.82
2017-03-23T10:00:34.255Z,1010.85
2017-03-23T10:01:29.409Z,1010.92
2017-03-23T10:02:24.697Z,1010.82
2017-03-23T10:03:19.862Z,1010.92
2017-03-23T10:04:14.483Z,1010.84
2017-03-23T10:05:08.566Z,1010.92
2017-03-23T10:06:08.608Z,1010.90
2017-03-23T10:07:08.613Z,1010.86
2017-03-23T10:08:08.770Z,1010.98
2017-03-23T10:09:08.720Z,1010.99
2017-03-23T10:10:08.759Z,1011.05
2017-03-23T10:11:02.845Z,1011.06
2017-03-23T10:11:57.262Z,1010.99
2017-03-23T10:12:51.154Z,1011.02
2017-03-23T10:13:52.369Z,1011.07
2017-03-23T10:14:47.006Z,1010.99
2017-03-23T10:15:47.050Z,1010.92
2017-03-23T10:16:42.110Z,1011.01
2017-03-23T10:17:37.190Z,1010.74
2017-03-23T10:18:37.229Z,1010.81
2017-03-23T10:19:32.563Z,1010.85
2017-03-23T10:20:26.694Z,1010.83
2017-03-23T10:21:21.321Z,1010.89
2017-03-23T10:22:22.384Z,1010.84
2017-03-23T10:23:22.448Z,1010.88
2017-03-23T10:24:22.444Z,1010.90
2017-03-23T10:25:16.565Z,1010.97
2017-03-23T10:26:16.570Z,1011.01
2017-03-23T10:27:11.614Z,1011.01
2017-03-23T10:28:05.615Z,1011.21
2017-03-23T10:29:05.726Z,1011.17
2017-03-23T10:29:53.822Z,1011.10
2017-03-23T10:30:55.187Z,1010.93
2017-03-23T10:31:56.042Z,1010.92
2017-03-23T10:32:50.889Z,1010.98
2017-03-23T10:33:44.909Z,1010.95
2017-03-23T10:34:39.043Z,1011.01
2017-03-23T10:35:33.069Z,1011.00
2017-03-23T10:36:27.579Z,1011.07
2017-03-23T10:37:27.600Z,1011.06
2017-03-23T10:38:22.162Z,1011.06
2017-03-23T10:39:17.269Z,1011.03
2017-03-23T10:40:12.243Z,1010.94
2017-03-23T10:41:13.597Z,1011.12
2017-03-23T10:42:13.334Z,1011.10
2017-03-23T10:43:08.463Z,1011.10
2017-03-23T10:44:02.879Z,1011.12
2017-03-23T10:45:02.929Z,1011.12
2017-03-23T10:46:02.514Z,1011.14
2017-03-23T10:47:03.001Z,1011.20
2017-03-23T10:48:03.037Z,1011.17
2017-03-23T10:49:02.730Z,1011.06
2017-03-23T10:49:56.720Z,1011.01
2017-03-23T10:50:57.838Z,1011.05
2017-03-23T10:51:51.833Z,1011.03
2017-03-23T10:52:51.907Z,1010.94
2017-03-23T10:53:46.975Z,1010.95
2017-03-23T10:54:41.961Z,1010.93
2017-03-23T10:55:36.479Z,1011.10
2017-03-23T10:56:36.475Z,1010.93
2017-03-23T10:57:31.652Z,1010.82
2017-03-23T10:58:25.170Z,1010.83
2017-03-23T10:59:25.215Z,1010.78
2017-03-23T11:00:19.247Z,1010.90
2017-03-23T11:01:19.338Z,1010.90
2017-03-23T11:02:14.388Z,1010.84
2017-03-23T11:03:09.472Z,1010.99
2017-03-23T11:04:10.253Z,1011.07
2017-03-23T11:05:03.995Z,1010.81
2017-03-23T11:06:04.750Z,1011.06
2017-03-23T11:07:05.023Z,1011.08
2017-03-23T11:07:52.651Z,1011.11
2017-03-23T11:08:47.692Z,1011.07
2017-03-23T11:09:48.016Z,1011.02
2017-03-23T11:10:42.793Z,1010.99
2017-03-23T11:11:36.833Z,1011.08
2017-03-23T11:12:37.187Z,1011.11
2017-03-23T11:13:32.005Z,1011.10
2017-03-23T11:14:31.982Z,1011.05
2017-03-23T11:15:27.037Z,1011.07
2017-03-23T11:16:22.047Z,1011.15
2017-03-23T11:17:16.051Z,1011.06
2017-03-23T11:18:11.098Z,1011.02
2017-03-23T11:19:06.695Z,1011.04
2017-03-23T11:20:00.243Z,1011.10
2017-03-23T11:21:00.244Z,1011.03
2017-03-23T11:21:55.310Z,1010.98
2017-03-23T11:22:50.385Z,1010.89